createdAt,value
2018-09-25T00:00:44.860Z,42.60
2018-09-25T00:01:27.967Z,52.13
2018-09-25T00:02:12.055Z,47.43
2018-09-25T00:02:55.156Z,46.00
2018-09-25T00:03:38.210Z,57.10
2018-09-25T00:04:21.820Z,43.45
2018-09-25T00:05:11.927Z,41.07
2018-09-25T00:05:55.136Z,52.70
2018-09-25T00:06:40.617Z,48.40
2018-09-25T00:07:24.532Z,43.83
2018-09-25T00:08:07.629Z,49.87
2018-09-25T00:08:51.763Z,60.07
2018-09-25T00:09:36.086Z,45.97
2018-09-25T00:10:19.365Z,44.07
2018-09-25T00:11:02.465Z,45.10
2018-09-25T00:11:45.344Z,39.00
2018-09-25T00:12:29.674Z,49.87
2018-09-25T00:13:12.589Z,43.70
2018-09-25T00:13:55.619Z,46.47
2018-09-25T00:14:38.505Z,49.73
2018-09-25T00:15:21.599Z,40.77
2018-09-25T00:16:05.536Z,37.63
2018-09-25T00:16:49.467Z,37.50
2018-09-25T00:17:32.111Z,37.87
2018-09-25T00:18:14.769Z,36.07
2018-09-25T00:18:58.228Z,35.53
2018-09-25T00:19:42.235Z,35.20
2018-09-25T00:20:24.879Z,43.40
2018-09-25T00:21:07.762Z,41.00
2018-09-25T00:21:50.100Z,35.30
2018-09-25T00:22:32.026Z,34.77
2018-09-25T00:23:14.316Z,43.63
2018-09-25T00:23:57.481Z,37.30
2018-09-25T00:24:39.462Z,36.87
2018-09-25T00:25:21.569Z,35.23
2018-09-25T00:26:03.739Z,36.00
2018-09-25T00:26:45.739Z,41.33
2018-09-25T00:27:27.782Z,36.03
2018-09-25T00:28:09.885Z,34.67
2018-09-25T00:28:52.143Z,35.93
2018-09-25T00:29:34.082Z,34.47
2018-09-25T00:30:16.169Z,32.93
2018-09-25T00:30:57.964Z,34.40
2018-09-25T00:31:40.023Z,42.80
2018-09-25T00:32:22.187Z,35.70
2018-09-25T00:33:05.129Z,36.60
2018-09-25T00:33:47.441Z,37.00
2018-09-25T00:34:29.512Z,34.83
2018-09-25T00:35:11.611Z,35.23
2018-09-25T00:35:53.887Z,35.83
2018-09-25T00:36:35.900Z,39.40
2018-09-25T00:37:18.144Z,31.93
2018-09-25T00:38:00.134Z,32.57
2018-09-25T00:38:41.914Z,32.93
2018-09-25T00:39:24.900Z,34.90
2018-09-25T00:40:06.790Z,30.73
2018-09-25T00:40:48.774Z,39.70
2018-09-25T00:41:30.760Z,28.70
2018-09-25T00:42:12.978Z,28.17
2018-09-25T00:42:55.104Z,31.77
2018-09-25T00:43:37.149Z,31.47
2018-09-25T00:44:19.118Z,27.77
2018-09-25T00:45:01.973Z,28.40
2018-09-25T00:45:46.584Z,37.13
2018-09-25T00:46:28.622Z,26.80
2018-09-25T00:47:11.685Z,28.87
2018-09-25T00:47:54.645Z,26.57
2018-09-25T00:48:37.714Z,27.47
2018-09-25T00:49:19.695Z,27.17
2018-09-25T00:50:01.768Z,27.40
2018-09-25T00:50:43.937Z,27.17
2018-09-25T00:51:26.009Z,26.73
2018-09-25T00:52:08.163Z,30.10
2018-09-25T00:52:50.330Z,29.20
2018-09-25T00:53:32.341Z,27.13
2018-09-25T00:54:15.303Z,31.10
2018-09-25T00:54:57.188Z,25.43
2018-09-25T00:55:39.095Z,27.90
2018-09-25T00:56:24.145Z,23.20
2018-09-25T00:57:06.117Z,27.40
2018-09-25T00:57:48.204Z,27.30
2018-09-25T00:58:30.141Z,27.67
2018-09-25T00:59:16.650Z,26.63
2018-09-25T00:59:58.925Z,27.80
2018-09-25T01:00:40.899Z,30.43
2018-09-25T01:01:23.062Z,27.30
2018-09-25T01:02:05.363Z,25.67
2018-09-25T01:02:47.329Z,29.90
2018-09-25T01:03:29.304Z,29.23
2018-09-25T01:04:11.334Z,25.97
2018-09-25T01:04:53.380Z,25.43
2018-09-25T01:05:35.472Z,27.37
2018-09-25T01:06:17.468Z,26.73
2018-09-25T01:06:59.436Z,28.53
2018-09-25T01:07:41.813Z,27.70
2018-09-25T01:08:23.923Z,26.30
2018-09-25T01:09:05.800Z,25.60
2018-09-25T01:09:47.646Z,24.27
2018-09-25T01:10:30.661Z,28.27
2018-09-25T01:11:12.601Z,26.73
2018-09-25T01:11:54.760Z,25.90
2018-09-25T01:12:36.822Z,32.27
2018-09-25T01:13:18.821Z,24.87
2018-09-25T01:14:00.874Z,26.67
2018-09-25T01:14:43.824Z,27.63
2018-09-25T01:15:25.753Z,25.60
2018-09-25T01:16:07.931Z,28.90
2018-09-25T01:16:50.152Z,26.33
2018-09-25T01:17:32.170Z,25.43
2018-09-25T01:18:14.175Z,27.40
2018-09-25T01:18:56.353Z,30.30
2018-09-25T01:19:38.551Z,35.23
2018-09-25T01:20:21.119Z,27.77
2018-09-25T01:21:03.074Z,26.20
2018-09-25T01:21:45.284Z,24.37
2018-09-25T01:22:27.316Z,30.40
2018-09-25T01:23:09.237Z,29.17
2018-09-25T01:23:52.121Z,31.17
2018-09-25T01:24:35.456Z,29.13
2018-09-25T01:25:18.387Z,23.67
2018-09-25T01:26:00.176Z,36.77
2018-09-25T01:26:42.993Z,30.70
2018-09-25T01:27:24.881Z,30.30
2018-09-25T01:28:07.848Z,26.37
2018-09-25T01:28:49.720Z,23.43
2018-09-25T01:29:31.864Z,24.70
2018-09-25T01:30:13.782Z,29.70
2018-09-25T01:30:56.228Z,24.37
2018-09-25T01:31:38.469Z,24.37
2018-09-25T01:32:20.697Z,27.93
2018-09-25T01:33:03.626Z,23.63
2018-09-25T01:33:45.595Z,25.80
2018-09-25T01:34:27.941Z,29.07
2018-09-25T01:35:09.895Z,22.33
2018-09-25T01:35:52.882Z,27.23
2018-09-25T01:36:35.201Z,27.07
2018-09-25T01:37:17.187Z,52.63
2018-09-25T01:37:59.092Z,24.03
2018-09-25T01:38:41.774Z,23.20
2018-09-25T01:39:23.951Z,23.53
2018-09-25T01:40:06.111Z,29.97
2018-09-25T01:40:48.300Z,30.40
2018-09-25T01:41:30.290Z,27.17
2018-09-25T01:42:12.361Z,24.10
2018-09-25T01:42:54.368Z,25.10
2018-09-25T01:43:36.346Z,26.93
2018-09-25T01:44:18.571Z,22.63
2018-09-25T01:45:00.564Z,22.10
2018-09-25T01:45:42.534Z,23.17
2018-09-25T01:46:24.545Z,28.47
2018-09-25T01:47:06.407Z,29.60
2018-09-25T01:47:48.331Z,23.50
2018-09-25T01:48:30.260Z,26.07
2018-09-25T01:49:12.933Z,23.67
2018-09-25T01:49:54.811Z,34.10
2018-09-25T01:50:37.579Z,23.83
2018-09-25T01:51:19.553Z,24.20
2018-09-25T01:52:01.513Z,25.60
2018-09-25T01:52:46.067Z,27.30
2018-09-25T01:53:27.864Z,26.40
2018-09-25T01:54:09.872Z,24.30
2018-09-25T01:54:51.732Z,26.97
2018-09-25T01:55:35.876Z,25.40
2018-09-25T01:56:18.243Z,23.47
2018-09-25T01:57:00.142Z,31.90
2018-09-25T01:57:42.050Z,25.10
2018-09-25T01:58:23.892Z,35.43
2018-09-25T01:59:05.848Z,25.97
2018-09-25T01:59:47.875Z,24.80
2018-09-25T02:00:30.241Z,26.80
2018-09-25T02:01:12.439Z,25.07
2018-09-25T02:01:54.437Z,32.33
2018-09-25T02:02:36.283Z,26.97
2018-09-25T02:03:18.219Z,39.97
2018-09-25T02:04:00.132Z,27.43
2018-09-25T02:04:42.041Z,25.50
2018-09-25T02:05:24.103Z,41.60
2018-09-25T02:06:06.386Z,28.80
2018-09-25T02:06:48.672Z,24.50
2018-09-25T02:07:31.008Z,26.70
2018-09-25T02:08:13.432Z,25.10
2018-09-25T02:08:55.423Z,27.63
2018-09-25T02:09:37.428Z,28.53
2018-09-25T02:10:19.366Z,31.57
2018-09-25T02:11:06.383Z,30.27
2018-09-25T02:11:48.404Z,26.90
2018-09-25T02:12:30.208Z,29.93
2018-09-25T02:13:12.477Z,26.80
2018-09-25T02:13:55.107Z,27.47
2018-09-25T02:14:37.293Z,29.90
2018-09-25T02:15:23.814Z,26.23
2018-09-25T02:16:06.271Z,30.90
2018-09-25T02:16:48.050Z,27.93
2018-09-25T02:17:31.032Z,26.70
2018-09-25T02:18:13.370Z,27.50
2018-09-25T02:19:01.393Z,30.50
2018-09-25T02:20:00.045Z,26.67
2018-09-25T02:20:42.767Z,30.00
2018-09-25T02:21:25.772Z,25.57
2018-09-25T02:22:12.099Z,34.83
2018-09-25T02:22:54.316Z,27.20
2018-09-25T02:23:36.179Z,26.17
2018-09-25T02:24:20.113Z,25.80
2018-09-25T02:25:02.203Z,32.17
2018-09-25T02:25:45.344Z,24.17
2018-09-25T02:26:33.618Z,24.77
2018-09-25T02:27:16.585Z,29.60
2018-09-25T02:27:58.583Z,25.47
2018-09-25T02:28:40.466Z,26.07
2018-09-25T02:29:22.462Z,25.23
2018-09-25T02:30:05.430Z,26.80
2018-09-25T02:30:47.411Z,23.43
2018-09-25T02:31:29.299Z,27.53
2018-09-25T02:32:12.206Z,25.37
2018-09-25T02:32:54.331Z,23.63
2018-09-25T02:33:36.404Z,23.90
2018-09-25T02:34:22.392Z,24.90
2018-09-25T02:35:04.283Z,23.20
2018-09-25T02:35:47.098Z,23.40
2018-09-25T02:36:33.337Z,24.00
2018-09-25T02:37:15.313Z,25.07
2018-09-25T02:37:57.164Z,24.37
2018-09-25T02:38:39.123Z,25.03
2018-09-25T02:39:21.263Z,29.47
2018-09-25T02:40:03.447Z,26.77
2018-09-25T02:40:45.223Z,24.23
2018-09-25T02:41:27.354Z,25.90
2018-09-25T02:42:09.519Z,26.17
2018-09-25T02:42:51.430Z,23.80
2018-09-25T02:43:33.230Z,26.10
2018-09-25T02:44:15.392Z,22.07
2018-09-25T02:44:57.332Z,21.47
2018-09-25T02:45:39.266Z,23.77
2018-09-25T02:46:21.303Z,24.50
2018-09-25T02:47:03.271Z,24.50
2018-09-25T02:47:45.213Z,24.73
2018-09-25T02:48:28.185Z,22.70
2018-09-25T02:49:10.011Z,23.00
2018-09-25T02:49:52.116Z,31.03
2018-09-25T02:50:34.279Z,22.63
2018-09-25T02:51:16.685Z,22.37
2018-09-25T02:51:58.794Z,23.10
2018-09-25T02:52:40.616Z,22.67
2018-09-25T02:53:22.441Z,23.40
2018-09-25T02:54:04.815Z,22.77
2018-09-25T02:54:46.633Z,23.27
2018-09-25T02:55:28.944Z,24.63
2018-09-25T02:56:11.139Z,23.63
2018-09-25T02:56:53.085Z,22.80
2018-09-25T02:57:35.173Z,23.53
2018-09-25T02:58:17.151Z,23.33
2018-09-25T02:58:59.064Z,25.03
2018-09-25T02:59:40.969Z,26.60
2018-09-25T03:00:22.939Z,22.83
2018-09-25T03:01:05.257Z,24.63
2018-09-25T03:01:47.833Z,23.90
2018-09-25T03:02:30.250Z,23.40
2018-09-25T03:03:12.289Z,25.20
2018-09-25T03:03:54.429Z,26.10
2018-09-25T03:04:36.431Z,23.67
2018-09-25T03:05:18.394Z,28.93
2018-09-25T03:06:00.309Z,24.00
2018-09-25T03:06:42.170Z,26.23
2018-09-25T03:07:24.004Z,23.73
2018-09-25T03:08:06.064Z,25.83
2018-09-25T03:08:48.065Z,24.77
2018-09-25T03:09:30.349Z,22.97
2018-09-25T03:10:12.886Z,24.10
2018-09-25T03:10:54.814Z,23.57
2018-09-25T03:11:37.963Z,23.20
2018-09-25T03:12:20.692Z,28.02
2018-09-25T03:13:02.701Z,23.77
2018-09-25T03:13:44.677Z,26.60
2018-09-25T03:14:26.746Z,24.70
2018-09-25T03:15:08.714Z,27.80
2018-09-25T03:15:50.531Z,26.10
2018-09-25T03:16:32.494Z,25.77
2018-09-25T03:17:20.289Z,25.80
2018-09-25T03:18:02.190Z,25.87
2018-09-25T03:18:44.401Z,24.27
2018-09-25T03:19:26.607Z,25.03
2018-09-25T03:20:08.501Z,25.23
2018-09-25T03:20:50.383Z,24.57
2018-09-25T03:21:32.397Z,24.47
2018-09-25T03:22:14.303Z,27.73
2018-09-25T03:22:56.332Z,24.40
2018-09-25T03:23:38.431Z,34.10
2018-09-25T03:24:20.855Z,24.65
2018-09-25T03:25:02.857Z,30.00
2018-09-25T03:25:44.796Z,28.20
2018-09-25T03:26:26.716Z,24.70
2018-09-25T03:27:08.848Z,25.47
2018-09-25T03:27:50.711Z,28.80
2018-09-25T03:28:32.802Z,25.03
2018-09-25T03:29:14.740Z,28.70
2018-09-25T03:29:56.818Z,29.60
2018-09-25T03:30:39.797Z,24.40
2018-09-25T03:31:21.659Z,28.40
2018-09-25T03:32:03.499Z,25.33
2018-09-25T03:32:45.504Z,24.33
2018-09-25T03:33:27.435Z,32.53
2018-09-25T03:34:09.394Z,26.60
2018-09-25T03:34:51.691Z,27.80
2018-09-25T03:35:33.874Z,26.57
2018-09-25T03:36:15.768Z,26.50
2018-09-25T03:36:57.731Z,25.20
2018-09-25T03:37:40.620Z,29.03
2018-09-25T03:38:22.580Z,26.47
2018-09-25T03:39:04.587Z,26.73
2018-09-25T03:39:46.448Z,25.00
2018-09-25T03:40:28.639Z,25.23
2018-09-25T03:41:10.626Z,25.90
2018-09-25T03:41:52.816Z,31.43
2018-09-25T03:42:34.920Z,32.00
2018-09-25T03:43:16.947Z,33.03
2018-09-25T03:44:01.672Z,28.63
2018-09-25T03:44:45.267Z,25.03
2018-09-25T03:45:27.845Z,32.07
2018-09-25T03:46:09.896Z,26.40
2018-09-25T03:46:52.068Z,42.97
2018-09-25T03:47:34.972Z,25.50
2018-09-25T03:48:16.858Z,29.37
2018-09-25T03:48:58.944Z,24.90
2018-09-25T03:49:41.832Z,25.30
2018-09-25T03:50:23.813Z,27.20
2018-09-25T03:51:05.817Z,25.10
2018-09-25T03:51:47.675Z,29.40
2018-09-25T03:52:29.513Z,25.30
2018-09-25T03:53:11.576Z,27.60
2018-09-25T03:53:53.676Z,26.90
2018-09-25T03:54:35.811Z,28.80
2018-09-25T03:55:17.867Z,26.23
2018-09-25T03:55:59.763Z,25.53
2018-09-25T03:56:41.885Z,31.43
2018-09-25T03:57:23.971Z,30.70
2018-09-25T03:58:05.933Z,25.23
2018-09-25T03:58:47.955Z,29.07
2018-09-25T03:59:31.033Z,32.90
2018-09-25T04:00:14.014Z,26.60
2018-09-25T04:00:55.863Z,25.70
2018-09-25T04:01:37.965Z,32.10
2018-09-25T04:02:20.706Z,24.72
2018-09-25T04:03:03.791Z,27.43
2018-09-25T04:03:45.919Z,25.20
2018-09-25T04:04:27.980Z,25.80
2018-09-25T04:05:10.498Z,25.47
2018-09-25T04:05:52.466Z,24.87
2018-09-25T04:06:34.355Z,28.10
2018-09-25T04:07:16.264Z,29.67
2018-09-25T04:07:58.135Z,29.80
2018-09-25T04:08:40.041Z,26.13
2018-09-25T04:09:22.015Z,24.70
2018-09-25T04:10:04.922Z,27.90
2018-09-25T04:10:47.530Z,28.70
2018-09-25T04:11:29.693Z,26.23
2018-09-25T04:12:11.589Z,32.93
2018-09-25T04:12:53.635Z,26.47
2018-09-25T04:13:35.507Z,28.63
2018-09-25T04:14:17.447Z,26.07
2018-09-25T04:14:59.388Z,25.33
2018-09-25T04:15:41.675Z,26.87
2018-09-25T04:16:23.504Z,29.90
2018-09-25T04:17:05.819Z,25.77
2018-09-25T04:17:47.820Z,31.13
2018-09-25T04:18:29.759Z,27.30
2018-09-25T04:19:11.747Z,29.03
2018-09-25T04:19:53.658Z,25.97
2018-09-25T04:20:35.735Z,23.97
2018-09-25T04:21:17.630Z,24.80
2018-09-25T04:21:59.511Z,25.13
2018-09-25T04:22:41.566Z,27.37
2018-09-25T04:23:23.524Z,23.87
2018-09-25T04:24:05.431Z,24.57
2018-09-25T04:24:47.294Z,25.10
2018-09-25T04:25:29.125Z,23.87
2018-09-25T04:26:11.030Z,23.33
2018-09-25T04:26:52.921Z,21.90
2018-09-25T04:27:34.927Z,24.67
2018-09-25T04:28:16.990Z,29.90
2018-09-25T04:28:59.171Z,22.43
2018-09-25T04:29:41.271Z,22.10
2018-09-25T04:30:23.716Z,21.10
2018-09-25T04:31:05.886Z,21.40
2018-09-25T04:31:47.758Z,20.63
2018-09-25T04:32:29.648Z,22.60
2018-09-25T04:33:11.696Z,24.23
2018-09-25T04:33:55.087Z,22.50
2018-09-25T04:34:37.294Z,23.57
2018-09-25T04:35:19.278Z,23.90
2018-09-25T04:36:01.239Z,22.60
2018-09-25T04:36:43.200Z,25.70
2018-09-25T04:37:25.126Z,28.93
2018-09-25T04:38:07.038Z,22.33
2018-09-25T04:38:48.786Z,23.60
2018-09-25T04:39:30.620Z,22.83
2018-09-25T04:40:12.519Z,23.90
2018-09-25T04:40:55.255Z,27.63
2018-09-25T04:41:37.255Z,25.23
2018-09-25T04:42:19.132Z,20.17
2018-09-25T04:43:01.096Z,29.93
2018-09-25T04:43:43.023Z,21.67
2018-09-25T04:44:24.879Z,25.83
2018-09-25T04:45:06.830Z,20.73
2018-09-25T04:45:48.832Z,22.90
2018-09-25T04:46:30.692Z,27.50
2018-09-25T04:47:12.915Z,21.00
2018-09-25T04:47:55.899Z,20.93
2018-09-25T04:48:37.878Z,21.00
2018-09-25T04:49:20.101Z,39.03
2018-09-25T04:50:02.082Z,29.53
2018-09-25T04:50:44.144Z,33.17
2018-09-25T04:51:26.092Z,22.60
2018-09-25T04:52:08.020Z,22.50
2018-09-25T04:52:50.048Z,23.83
2018-09-25T04:53:32.132Z,27.03
2018-09-25T04:54:14.082Z,23.83
2018-09-25T04:54:56.119Z,23.93
2018-09-25T04:55:38.197Z,29.77
2018-09-25T04:56:20.955Z,23.90
2018-09-25T04:57:03.136Z,23.60
2018-09-25T04:57:44.994Z,24.47
2018-09-25T04:58:29.045Z,23.50
2018-09-25T04:59:11.096Z,25.17
2018-09-25T04:59:53.227Z,23.70
2018-09-25T05:00:35.336Z,31.33
2018-09-25T05:01:17.559Z,23.17
2018-09-25T05:01:59.552Z,36.63
2018-09-25T05:02:41.671Z,26.50
2018-09-25T05:03:23.972Z,23.83
2018-09-25T05:04:05.967Z,25.43
2018-09-25T05:04:47.861Z,25.23
2018-09-25T05:05:30.112Z,22.57
2018-09-25T05:06:12.235Z,24.40
2018-09-25T05:06:54.108Z,29.30
2018-09-25T05:07:35.905Z,23.17
2018-09-25T05:08:17.856Z,24.10
2018-09-25T05:08:59.782Z,30.23
2018-09-25T05:09:41.901Z,23.83
2018-09-25T05:10:23.928Z,24.33
2018-09-25T05:11:05.958Z,30.30
2018-09-25T05:11:48.146Z,24.77
2018-09-25T05:12:30.298Z,26.63
2018-09-25T05:13:12.403Z,30.10
2018-09-25T05:13:54.476Z,28.53
2018-09-25T05:14:36.680Z,25.60
2018-09-25T05:15:18.641Z,26.70
2018-09-25T05:16:00.896Z,26.23
2018-09-25T05:16:42.738Z,28.83
2018-09-25T05:17:24.787Z,29.77
2018-09-25T05:18:06.883Z,27.37
2018-09-25T05:18:48.881Z,26.43
2018-09-25T05:19:30.813Z,25.80
2018-09-25T05:20:12.923Z,27.40
2018-09-25T05:20:55.122Z,28.20
2018-09-25T05:21:37.404Z,26.37
2018-09-25T05:22:19.407Z,26.10
2018-09-25T05:23:01.387Z,28.40
2018-09-25T05:23:43.511Z,26.20
2018-09-25T05:24:25.404Z,27.63
2018-09-25T05:25:07.602Z,29.10
2018-09-25T05:25:49.565Z,25.73
2018-09-25T05:26:31.376Z,28.10
2018-09-25T05:27:13.518Z,26.20
2018-09-25T05:27:55.491Z,29.23
2018-09-25T05:28:37.562Z,29.27
2018-09-25T05:29:19.643Z,27.90
2018-09-25T05:30:01.823Z,27.80
2018-09-25T05:30:43.794Z,28.60
2018-09-25T05:31:25.727Z,28.07
2018-09-25T05:32:07.773Z,31.60
2018-09-25T05:32:49.687Z,29.73
2018-09-25T05:33:31.570Z,27.47
2018-09-25T05:34:13.480Z,26.13
2018-09-25T05:34:55.684Z,26.17
2018-09-25T05:35:37.543Z,27.07
2018-09-25T05:36:19.526Z,28.03
2018-09-25T05:37:01.962Z,27.03
2018-09-25T05:37:43.845Z,26.47
2018-09-25T05:38:25.727Z,28.07
2018-09-25T05:39:07.831Z,26.17
2018-09-25T05:39:49.779Z,24.30
2018-09-25T05:40:31.611Z,25.67
2018-09-25T05:41:13.727Z,33.87
2018-09-25T05:41:55.612Z,29.27
2018-09-25T05:42:37.691Z,26.70
2018-09-25T05:43:19.944Z,31.07
2018-09-25T05:44:02.087Z,26.70
2018-09-25T05:44:44.029Z,27.10
2018-09-25T05:45:26.046Z,28.17
2018-09-25T05:46:08.047Z,27.03
2018-09-25T05:46:50.084Z,24.77
2018-09-25T05:47:32.078Z,27.80
2018-09-25T05:48:14.043Z,27.70
2018-09-25T05:48:56.110Z,27.33
2018-09-25T05:49:38.229Z,24.67
2018-09-25T05:50:20.827Z,26.87
2018-09-25T05:51:02.797Z,26.63
2018-09-25T05:51:44.744Z,28.40
2018-09-25T05:52:26.969Z,26.80
2018-09-25T05:53:08.865Z,27.60
2018-09-25T05:53:50.949Z,25.10
2018-09-25T05:54:32.816Z,22.37
2018-09-25T05:55:14.889Z,20.63
2018-09-25T05:55:57.345Z,19.10
2018-09-25T05:56:39.425Z,18.70
2018-09-25T05:57:21.412Z,18.50
2018-09-25T05:58:03.448Z,18.80
2018-09-25T05:58:45.552Z,19.50
2018-09-25T05:59:27.678Z,18.70
2018-09-25T06:00:09.604Z,20.33
2018-09-25T06:00:51.664Z,19.43
2018-09-25T06:01:34.074Z,17.97
2018-09-25T06:02:16.209Z,18.80
2018-09-25T06:02:58.188Z,20.23
2018-09-25T06:03:40.514Z,26.10
2018-09-25T06:04:22.438Z,24.40
2018-09-25T06:05:04.423Z,22.47
2018-09-25T06:05:46.392Z,17.97
2018-09-25T06:06:28.503Z,28.00
2018-09-25T06:07:10.400Z,17.57
2018-09-25T06:07:52.513Z,18.13
2018-09-25T06:08:35.497Z,23.87
2018-09-25T06:09:17.541Z,18.80
2018-09-25T06:09:59.605Z,18.30
2018-09-25T06:10:42.103Z,21.73
2018-09-25T06:11:24.060Z,19.07
2018-09-25T06:12:05.927Z,21.77
2018-09-25T06:12:47.947Z,19.50
2018-09-25T06:13:29.933Z,19.17
2018-09-25T06:14:12.488Z,19.23
2018-09-25T06:14:54.633Z,19.73
2018-09-25T06:15:37.605Z,22.27
2018-09-25T06:16:19.569Z,20.30
2018-09-25T06:17:01.551Z,21.00
2018-09-25T06:17:43.447Z,27.10
2018-09-25T06:18:25.488Z,23.77
2018-09-25T06:19:07.446Z,16.80
2018-09-25T06:19:49.408Z,17.27
2018-09-25T06:20:31.338Z,16.87
2018-09-25T06:21:13.267Z,15.50
2018-09-25T06:21:55.536Z,12.30
2018-09-25T06:22:37.471Z,16.27
2018-09-25T06:23:19.530Z,12.57
2018-09-25T06:24:01.695Z,12.70
2018-09-25T06:24:43.681Z,13.10
2018-09-25T06:25:25.585Z,19.80
2018-09-25T06:26:07.499Z,19.60
2018-09-25T06:26:50.620Z,14.43
2018-09-25T06:27:32.742Z,13.13
2018-09-25T06:28:14.746Z,13.70
2018-09-25T06:28:56.832Z,12.07
2018-09-25T06:29:39.120Z,13.50
2018-09-25T06:30:21.246Z,16.17
2018-09-25T06:31:03.249Z,12.23
2018-09-25T06:31:45.130Z,16.30
2018-09-25T06:32:27.134Z,15.70
2018-09-25T06:33:09.179Z,18.10
2018-09-25T06:33:51.214Z,13.30
2018-09-25T06:34:33.059Z,12.67
2018-09-25T06:35:15.144Z,16.63
2018-09-25T06:35:57.929Z,14.30
2018-09-25T06:36:40.067Z,21.63
2018-09-25T06:37:22.044Z,15.50
2018-09-25T06:38:04.234Z,17.60
2018-09-25T06:38:46.106Z,13.13
2018-09-25T06:39:29.493Z,15.10
2018-09-25T06:40:11.726Z,15.47
2018-09-25T06:40:53.734Z,17.07
2018-09-25T06:41:35.943Z,16.03
2018-09-25T06:42:17.844Z,15.70
2018-09-25T06:43:00.239Z,22.40
2018-09-25T06:43:42.160Z,19.27
2018-09-25T06:44:24.364Z,17.83
2018-09-25T06:45:06.352Z,16.33
2018-09-25T06:45:48.316Z,20.30
2018-09-25T06:46:30.449Z,17.90
2018-09-25T06:47:12.567Z,22.43
2018-09-25T06:47:54.587Z,23.70
2018-09-25T06:48:36.552Z,22.33
2018-09-25T06:49:18.573Z,21.23
2018-09-25T06:50:00.469Z,23.97
2018-09-25T06:50:42.510Z,20.70
2018-09-25T06:51:24.409Z,23.20
2018-09-25T06:52:06.409Z,18.53
2018-09-25T06:52:48.304Z,18.73
2018-09-25T06:53:30.475Z,17.53
2018-09-25T06:54:12.431Z,23.93
2018-09-25T06:54:54.497Z,20.90
2018-09-25T06:55:36.685Z,22.53
2018-09-25T06:56:18.782Z,19.07
2018-09-25T06:57:00.743Z,18.90
2018-09-25T06:57:42.801Z,20.33
2018-09-25T06:58:25.604Z,19.83
2018-09-25T06:59:07.800Z,21.50
2018-09-25T06:59:49.927Z,20.27
2018-09-25T07:00:31.917Z,20.13
2018-09-25T07:01:14.026Z,20.43
2018-09-25T07:01:56.039Z,21.40
2018-09-25T07:02:37.985Z,19.20
2018-09-25T07:03:19.975Z,20.90
2018-09-25T07:04:01.905Z,21.47
2018-09-25T07:04:43.716Z,20.53
2018-09-25T07:05:25.829Z,21.30
2018-09-25T07:06:08.026Z,25.20
2018-09-25T07:06:50.005Z,23.87
2018-09-25T07:07:32.216Z,21.60
2018-09-25T07:08:14.473Z,20.67
2018-09-25T07:08:56.431Z,21.67
2018-09-25T07:09:39.096Z,20.63
2018-09-25T07:10:21.118Z,29.97
2018-09-25T07:11:03.110Z,20.33
2018-09-25T07:11:45.036Z,29.37
2018-09-25T07:12:26.947Z,22.37
2018-09-25T07:13:08.809Z,23.33
2018-09-25T07:13:50.668Z,21.33
2018-09-25T07:14:32.582Z,23.13
2018-09-25T07:15:14.552Z,25.20
2018-09-25T07:15:56.437Z,23.07
2018-09-25T07:16:38.484Z,22.83
2018-09-25T07:17:20.411Z,21.70
2018-09-25T07:18:02.364Z,23.77
2018-09-25T07:18:44.523Z,27.40
2018-09-25T07:19:26.461Z,22.10
2018-09-25T07:20:08.508Z,20.57
2018-09-25T07:20:50.623Z,32.90
2018-09-25T07:21:32.611Z,31.20
2018-09-25T07:22:14.602Z,20.27
2018-09-25T07:22:56.534Z,21.63
2018-09-25T07:23:38.489Z,20.90
2018-09-25T07:24:21.150Z,17.90
2018-09-25T07:25:03.136Z,21.07
2018-09-25T07:25:45.451Z,24.17
2018-09-25T07:26:27.651Z,19.97
2018-09-25T07:27:09.708Z,18.27
2018-09-25T07:27:51.577Z,17.63
2018-09-25T07:28:34.576Z,20.43
2018-09-25T07:29:17.645Z,19.37
2018-09-25T07:29:59.766Z,21.10
2018-09-25T07:30:41.688Z,19.60
2018-09-25T07:31:23.589Z,18.77
2018-09-25T07:32:05.446Z,22.03
2018-09-25T07:32:47.260Z,21.90
2018-09-25T07:33:29.226Z,20.57
2018-09-25T07:34:11.368Z,27.23
2018-09-25T07:34:53.276Z,22.70
2018-09-25T07:35:35.696Z,22.57
2018-09-25T07:36:17.648Z,24.60
2018-09-25T07:36:59.573Z,22.60
2018-09-25T07:37:41.617Z,19.60
2018-09-25T07:38:23.521Z,20.90
2018-09-25T07:39:05.669Z,29.30
2018-09-25T07:39:47.763Z,21.47
2018-09-25T07:40:30.016Z,22.77
2018-09-25T07:41:12.050Z,21.10
2018-09-25T07:41:54.087Z,21.53
2018-09-25T07:42:36.067Z,26.10
2018-09-25T07:43:18.143Z,23.67
2018-09-25T07:44:00.120Z,20.70
2018-09-25T07:44:42.035Z,22.17
2018-09-25T07:45:24.036Z,23.07
2018-09-25T07:46:06.023Z,21.50
2018-09-25T07:46:48.752Z,25.70
2018-09-25T07:47:34.656Z,19.63
2018-09-25T07:48:17.588Z,22.67
2018-09-25T07:48:59.597Z,24.03
2018-09-25T07:49:41.708Z,21.83
2018-09-25T07:50:23.866Z,21.23
2018-09-25T07:51:06.272Z,24.00
2018-09-25T07:51:49.214Z,22.27
2018-09-25T07:52:31.096Z,25.10
2018-09-25T07:53:13.112Z,21.67
2018-09-25T07:53:55.220Z,22.63
2018-09-25T07:54:37.170Z,24.57
2018-09-25T07:55:19.260Z,26.43
2018-09-25T07:56:01.280Z,23.80
2018-09-25T07:56:43.205Z,25.37
2018-09-25T07:57:25.295Z,25.97
2018-09-25T07:58:08.056Z,24.80
2018-09-25T07:58:50.125Z,28.90
2018-09-25T07:59:32.019Z,28.83
2018-09-25T08:00:14.100Z,28.70
2018-09-25T08:00:55.993Z,31.33
2018-09-25T08:01:37.811Z,29.23
2018-09-25T08:02:20.858Z,31.00
2018-09-25T08:03:02.899Z,26.00
2018-09-25T08:03:47.275Z,25.50
2018-09-25T08:04:30.272Z,24.90
2018-09-25T08:05:12.583Z,26.43
2018-09-25T08:05:54.509Z,35.13
2018-09-25T08:06:36.326Z,31.60
2018-09-25T08:07:18.227Z,28.37
2018-09-25T08:08:01.205Z,31.60
2018-09-25T08:08:43.012Z,30.37
2018-09-25T08:09:26.078Z,27.93
2018-09-25T08:10:07.921Z,33.90
2018-09-25T08:10:50.065Z,39.63
2018-09-25T08:11:31.966Z,27.37
2018-09-25T08:12:14.188Z,26.10
2018-09-25T08:12:56.067Z,35.23
2018-09-25T08:13:38.214Z,28.67
2018-09-25T08:14:20.650Z,27.75
2018-09-25T08:15:02.528Z,27.17
2018-09-25T08:15:46.262Z,28.23
2018-09-25T08:16:28.311Z,31.63
2018-09-25T08:17:10.177Z,32.53
2018-09-25T08:17:52.106Z,29.93
2018-09-25T08:18:34.532Z,30.17
2018-09-25T08:19:21.604Z,29.70
2018-09-25T08:20:04.222Z,30.27
2018-09-25T08:20:46.080Z,39.30
2018-09-25T08:21:28.027Z,30.47
2018-09-25T08:22:10.024Z,33.80
2018-09-25T08:22:52.034Z,32.93
2018-09-25T08:23:34.127Z,39.47
2018-09-25T08:24:16.080Z,42.90
2018-09-25T08:24:57.960Z,38.57
2018-09-25T08:25:39.984Z,42.23
2018-09-25T08:26:22.048Z,32.90
2018-09-25T08:27:03.965Z,32.00
2018-09-25T08:27:46.186Z,31.90
2018-09-25T08:28:29.162Z,44.73
2018-09-25T08:29:11.432Z,30.67
2018-09-25T08:29:53.365Z,28.00
2018-09-25T08:30:37.387Z,34.37
2018-09-25T08:31:19.270Z,31.63
2018-09-25T08:32:02.285Z,35.30
2018-09-25T08:32:44.984Z,28.20
2018-09-25T08:33:27.654Z,29.23
2018-09-25T08:34:19.436Z,28.57
2018-09-25T08:35:01.921Z,26.80
2018-09-25T08:35:44.018Z,26.70
2018-09-25T08:36:26.031Z,29.90
2018-09-25T08:37:08.038Z,29.43
2018-09-25T08:37:50.227Z,27.27
2018-09-25T08:38:32.212Z,27.23
2018-09-25T08:39:16.847Z,28.17
2018-09-25T08:39:58.938Z,28.43
2018-09-25T08:40:40.984Z,27.97
2018-09-25T08:41:23.043Z,26.23
2018-09-25T08:42:04.996Z,28.13
2018-09-25T08:42:46.906Z,27.60
2018-09-25T08:43:28.851Z,27.30
2018-09-25T08:44:10.850Z,26.97
2018-09-25T08:44:52.876Z,27.70
2018-09-25T08:45:34.817Z,29.03
2018-09-25T08:46:16.999Z,27.80
2018-09-25T08:46:59.170Z,29.13
2018-09-25T08:47:41.145Z,28.73
2018-09-25T08:48:23.346Z,29.17
2018-09-25T08:49:05.247Z,28.07
2018-09-25T08:49:48.348Z,35.40
2018-09-25T08:50:30.435Z,28.70
2018-09-25T08:51:12.400Z,27.67
2018-09-25T08:51:54.536Z,34.23
2018-09-25T08:52:36.559Z,28.53
2018-09-25T08:53:18.496Z,28.47
2018-09-25T08:54:00.789Z,30.03
2018-09-25T08:54:42.609Z,28.40
2018-09-25T08:55:24.513Z,34.23
2018-09-25T08:56:06.452Z,27.63
2018-09-25T08:56:48.473Z,27.23
2018-09-25T08:57:30.416Z,33.00
2018-09-25T08:58:12.108Z,26.03
2018-09-25T08:58:54.341Z,28.03
2018-09-25T08:59:36.548Z,27.87
2018-09-25T09:00:18.404Z,29.57
2018-09-25T09:01:00.438Z,31.40
2018-09-25T09:01:42.684Z,29.80
2018-09-25T09:02:24.759Z,29.60
2018-09-25T09:03:06.882Z,36.03
2018-09-25T09:03:48.837Z,31.80
2018-09-25T09:04:31.404Z,33.57
2018-09-25T09:05:13.290Z,27.03